sensor_id;sensor_type;location;lat;lon;timestamp;P1;durP1;ratioP1;P2;durP2;ratioP2
42260;SDS011;27926;48.062;7.474;2023-05-10T00:00:25;3.00;;;0.50;;
42260;SDS011;27926;48.062;7.474;2023-05-10T00:02:50;4.43;;;0.60;;
42260;SDS011;27926;48.062;7.474;2023-05-10T00:05:14;4.18;;;0.40;;
42260;SDS011;27926;48.062;7.474;2023-05-10T00:07:39;4.10;;;0.38;;
42260;SDS011;27926;48.062;7.474;2023-05-10T00:10:04;5.78;;;0.50;;
42260;SDS011;27926;48.062;7.474;2023-05-10T00:12:29;2.15;;;0.43;;
42260;SDS011;27926;48.062;7.474;2023-05-10T00:14:53;2.17;;;0.50;;
42260;SDS011;27926;48.062;7.474;2023-05-10T00:17:18;1.70;;;0.43;;
42260;SDS011;27926;48.062;7.474;2023-05-10T00:19:42;0.43;;;0.40;;
42260;SDS011;27926;48.062;7.474;2023-05-10T00:22:07;10.05;;;0.65;;
42260;SDS011;27926;48.062;7.474;2023-05-10T00:24:31;5.10;;;0.47;;
42260;SDS011;27926;48.062;7.474;2023-05-10T00:26:56;6.18;;;0.60;;
42260;SDS011;27926;48.062;7.474;2023-05-10T00:29:21;0.32;;;0.32;;
42260;SDS011;27926;48.062;7.474;2023-05-10T00:31:45;0.82;;;0.45;;
42260;SDS011;27926;48.062;7.474;2023-05-10T00:34:10;0.65;;;0.40;;
42260;SDS011;27926;48.062;7.474;2023-05-10T00:36:34;5.22;;;0.75;;
42260;SDS011;27926;48.062;7.474;2023-05-10T00:38:59;1.92;;;0.40;;
42260;SDS011;27926;48.062;7.474;2023-05-10T00:41:24;4.78;;;1.27;;
42260;SDS011;27926;48.062;7.474;2023-05-10T00:43:49;1.98;;;0.50;;
42260;SDS011;27926;48.062;7.474;2023-05-10T00:46:14;0.77;;;0.55;;
42260;SDS011;27926;48.062;7.474;2023-05-10T00:48:39;1.75;;;0.30;;
42260;SDS011;27926;48.062;7.474;2023-05-10T00:51:04;3.45;;;1.10;;
42260;SDS011;27926;48.062;7.474;2023-05-10T00:53:29;8.77;;;1.60;;
42260;SDS011;27926;48.062;7.474;2023-05-10T00:55:58;1.00;;;0.60;;
42260;SDS011;27926;48.062;7.474;2023-05-10T00:58:23;1.50;;;0.50;;
42260;SDS011;27926;48.062;7.474;2023-05-10T01:00:51;1.45;;;0.57;;
42260;SDS011;27926;48.062;7.474;2023-05-10T01:03:16;1.98;;;0.70;;
42260;SDS011;27926;48.062;7.474;2023-05-10T01:05:41;2.53;;;0.40;;
42260;SDS011;27926;48.062;7.474;2023-05-10T01:08:05;4.82;;;0.70;;
42260;SDS011;27926;48.062;7.474;2023-05-10T01:10:30;3.00;;;0.57;;
42260;SDS011;27926;48.062;7.474;2023-05-10T01:12:55;11.40;;;0.55;;
42260;SDS011;27926;48.062;7.474;2023-05-10T01:15:20;0.67;;;0.67;;
42260;SDS011;27926;48.062;7.474;2023-05-10T01:17:45;8.52;;;1.85;;
42260;SDS011;27926;48.062;7.474;2023-05-10T01:20:12;3.00;;;0.77;;
42260;SDS011;27926;48.062;7.474;2023-05-10T01:38:57;4.22;;;0.75;;
42260;SDS011;27926;48.062;7.474;2023-05-10T01:46:55;14.18;;;0.80;;
42260;SDS011;27926;48.062;7.474;2023-05-10T01:49:29;3.30;;;0.80;;
42260;SDS011;27926;48.062;7.474;2023-05-10T01:52:06;5.72;;;1.00;;
42260;SDS011;27926;48.062;7.474;2023-05-10T01:54:34;2.53;;;0.75;;
42260;SDS011;27926;48.062;7.474;2023-05-10T01:57:03;0.68;;;0.68;;
42260;SDS011;27926;48.062;7.474;2023-05-10T01:59:33;0.98;;;0.68;;
42260;SDS011;27926;48.062;7.474;2023-05-10T02:02:05;2.47;;;0.88;;
42260;SDS011;27926;48.062;7.474;2023-05-10T02:04:30;10.50;;;1.42;;
42260;SDS011;27926;48.062;7.474;2023-05-10T02:06:57;1.25;;;1.05;;
42260;SDS011;27926;48.062;7.474;2023-05-10T02:09:21;6.80;;;1.15;;
42260;SDS011;27926;48.062;7.474;2023-05-10T02:11:49;4.18;;;0.90;;
42260;SDS011;27926;48.062;7.474;2023-05-10T02:14:14;2.75;;;0.82;;
42260;SDS011;27926;48.062;7.474;2023-05-10T02:16:40;6.13;;;1.00;;
42260;SDS011;27926;48.062;7.474;2023-05-10T02:19:06;1.25;;;0.98;;
42260;SDS011;27926;48.062;7.474;2023-05-10T02:21:32;11.43;;;1.00;;
42260;SDS011;27926;48.062;7.474;2023-05-10T02:23:58;5.05;;;1.13;;
42260;SDS011;27926;48.062;7.474;2023-05-10T02:26:24;6.35;;;0.98;;
42260;SDS011;27926;48.062;7.474;2023-05-10T02:28:51;1.20;;;1.05;;
42260;SDS011;27926;48.062;7.474;2023-05-10T02:31:18;4.10;;;1.10;;
42260;SDS011;27926;48.062;7.474;2023-05-10T02:33:44;8.82;;;0.77;;
42260;SDS011;27926;48.062;7.474;2023-05-10T02:36:10;6.60;;;0.80;;
42260;SDS011;27926;48.062;7.474;2023-05-10T02:38:35;7.78;;;1.40;;
42260;SDS011;27926;48.062;7.474;2023-05-10T02:41:01;5.38;;;1.00;;
42260;SDS011;27926;48.062;7.474;2023-05-10T02:43:27;8.82;;;1.17;;
42260;SDS011;27926;48.062;7.474;2023-05-10T02:45:55;4.07;;;1.75;;
42260;SDS011;27926;48.062;7.474;2023-05-10T02:48:20;5.30;;;1.08;;
42260;SDS011;27926;48.062;7.474;2023-05-10T02:50:45;10.25;;;1.13;;
42260;SDS011;27926;48.062;7.474;2023-05-10T02:53:15;6.20;;;1.10;;
42260;SDS011;27926;48.062;7.474;2023-05-10T02:55:45;6.72;;;0.80;;
42260;SDS011;27926;48.062;7.474;2023-05-10T02:58:14;11.90;;;0.98;;
42260;SDS011;27926;48.062;7.474;2023-05-10T03:00:39;4.53;;;0.93;;
42260;SDS011;27926;48.062;7.474;2023-05-10T03:03:03;4.72;;;0.88;;
42260;SDS011;27926;48.062;7.474;2023-05-10T03:05:28;6.72;;;0.77;;
42260;SDS011;27926;48.062;7.474;2023-05-10T03:07:52;1.73;;;1.00;;
42260;SDS011;27926;48.062;7.474;2023-05-10T03:10:18;1.27;;;1.00;;
42260;SDS011;27926;48.062;7.474;2023-05-10T03:15:20;4.95;;;1.00;;
42260;SDS011;27926;48.062;7.474;2023-05-10T03:17:55;0.98;;;0.82;;
42260;SDS011;27926;48.062;7.474;2023-05-10T03:20:26;13.63;;;1.02;;
42260;SDS011;27926;48.062;7.474;2023-05-10T03:22:55;7.88;;;0.80;;
42260;SDS011;27926;48.062;7.474;2023-05-10T03:25:28;7.78;;;1.10;;
42260;SDS011;27926;48.062;7.474;2023-05-10T03:27:55;1.10;;;0.70;;
42260;SDS011;27926;48.062;7.474;2023-05-10T03:30:21;2.72;;;0.82;;
42260;SDS011;27926;48.062;7.474;2023-05-10T03:32:47;12.93;;;1.10;;
42260;SDS011;27926;48.062;7.474;2023-05-10T03:35:12;1.52;;;1.08;;
42260;SDS011;27926;48.062;7.474;2023-05-10T03:37:39;2.53;;;0.80;;
42260;SDS011;27926;48.062;7.474;2023-05-10T03:40:04;3.97;;;0.90;;
42260;SDS011;27926;48.062;7.474;2023-05-10T03:42:29;6.90;;;1.00;;
42260;SDS011;27926;48.062;7.474;2023-05-10T03:44:54;4.15;;;1.30;;
42260;SDS011;27926;48.062;7.474;2023-05-10T03:47:19;5.07;;;0.93;;
42260;SDS011;27926;48.062;7.474;2023-05-10T03:49:43;4.32;;;1.13;;
42260;SDS011;27926;48.062;7.474;2023-05-10T03:52:08;4.28;;;0.90;;
42260;SDS011;27926;48.062;7.474;2023-05-10T03:54:32;6.38;;;2.42;;
42260;SDS011;27926;48.062;7.474;2023-05-10T03:56:57;7.20;;;1.20;;
42260;SDS011;27926;48.062;7.474;2023-05-10T03:59:22;2.00;;;1.40;;
42260;SDS011;27926;48.062;7.474;2023-05-10T04:01:46;1.20;;;1.00;;
42260;SDS011;27926;48.062;7.474;2023-05-10T04:04:11;5.97;;;1.00;;
42260;SDS011;27926;48.062;7.474;2023-05-10T04:06:35;3.08;;;1.40;;
42260;SDS011;27926;48.062;7.474;2023-05-10T04:09:01;9.52;;;1.25;;
42260;SDS011;27926;48.062;7.474;2023-05-10T04:11:28;10.23;;;1.23;;
42260;SDS011;27926;48.062;7.474;2023-05-10T04:13:52;2.28;;;1.25;;
42260;SDS011;27926;48.062;7.474;2023-05-10T04:16:17;3.80;;;1.15;;
42260;SDS011;27926;48.062;7.474;2023-05-10T04:18:41;3.72;;;1.35;;
42260;SDS011;27926;48.062;7.474;2023-05-10T04:21:12;4.70;;;1.35;;
42260;SDS011;27926;48.062;7.474;2023-05-10T04:23:37;3.95;;;1.45;;
42260;SDS011;27926;48.062;7.474;2023-05-10T04:26:02;2.95;;;1.45;;
42260;SDS011;27926;48.062;7.474;2023-05-10T04:28:26;3.83;;;1.50;;
42260;SDS011;27926;48.062;7.474;2023-05-10T04:30:51;2.13;;;1.05;;
42260;SDS011;27926;48.062;7.474;2023-05-10T04:33:15;4.05;;;1.33;;
42260;SDS011;27926;48.062;7.474;2023-05-10T04:35:40;3.13;;;1.33;;
42260;SDS011;27926;48.062;7.474;2023-05-10T04:38:05;4.32;;;1.27;;
42260;SDS011;27926;48.062;7.474;2023-05-10T04:40:29;1.30;;;1.20;;
42260;SDS011;27926;48.062;7.474;2023-05-10T04:42:54;5.22;;;1.40;;
42260;SDS011;27926;48.062;7.474;2023-05-10T04:45:19;6.32;;;1.27;;
42260;SDS011;27926;48.062;7.474;2023-05-10T04:47:43;1.73;;;1.20;;
42260;SDS011;27926;48.062;7.474;2023-05-10T04:50:08;3.80;;;1.13;;
42260;SDS011;27926;48.062;7.474;2023-05-10T04:52:33;4.50;;;2.72;;
42260;SDS011;27926;48.062;7.474;2023-05-10T04:54:57;1.58;;;1.00;;
42260;SDS011;27926;48.062;7.474;2023-05-10T04:57:22;1.50;;;1.13;;
42260;SDS011;27926;48.062;7.474;2023-05-10T04:59:46;2.45;;;1.30;;
42260;SDS011;27926;48.062;7.474;2023-05-10T05:02:11;1.30;;;1.13;;
42260;SDS011;27926;48.062;7.474;2023-05-10T05:04:36;3.65;;;1.13;;
42260;SDS011;27926;48.062;7.474;2023-05-10T05:07:00;2.58;;;1.25;;
42260;SDS011;27926;48.062;7.474;2023-05-10T05:09:25;1.48;;;1.13;;
42260;SDS011;27926;48.062;7.474;2023-05-10T05:11:50;6.25;;;1.02;;
42260;SDS011;27926;48.062;7.474;2023-05-10T05:14:14;6.53;;;1.58;;
42260;SDS011;27926;48.062;7.474;2023-05-10T05:16:39;4.57;;;1.67;;
42260;SDS011;27926;48.062;7.474;2023-05-10T05:19:03;9.13;;;1.50;;
42260;SDS011;27926;48.062;7.474;2023-05-10T05:21:28;4.93;;;1.33;;
42260;SDS011;27926;48.062;7.474;2023-05-10T05:23:53;6.03;;;1.30;;
42260;SDS011;27926;48.062;7.474;2023-05-10T05:26:17;2.80;;;1.15;;
42260;SDS011;27926;48.062;7.474;2023-05-10T05:28:42;10.15;;;1.35;;
42260;SDS011;27926;48.062;7.474;2023-05-10T05:31:07;6.13;;;1.27;;
42260;SDS011;27926;48.062;7.474;2023-05-10T05:33:31;5.68;;;1.25;;
42260;SDS011;27926;48.062;7.474;2023-05-10T05:35:56;3.05;;;1.90;;
42260;SDS011;27926;48.062;7.474;2023-05-10T05:38:20;3.33;;;1.30;;
42260;SDS011;27926;48.062;7.474;2023-05-10T05:40:45;1.98;;;1.20;;
42260;SDS011;27926;48.062;7.474;2023-05-10T05:43:13;1.40;;;1.25;;
42260;SDS011;27926;48.062;7.474;2023-05-10T05:45:37;2.28;;;1.20;;
42260;SDS011;27926;48.062;7.474;2023-05-10T05:48:02;6.30;;;1.10;;
42260;SDS011;27926;48.062;7.474;2023-05-10T05:50:27;5.70;;;1.50;;
42260;SDS011;27926;48.062;7.474;2023-05-10T05:52:51;4.10;;;1.52;;
42260;SDS011;27926;48.062;7.474;2023-05-10T05:55:16;2.28;;;1.27;;
42260;SDS011;27926;48.062;7.474;2023-05-10T05:57:41;2.38;;;1.88;;
42260;SDS011;27926;48.062;7.474;2023-05-10T06:00:07;15.60;;;2.47;;
42260;SDS011;27926;48.062;7.474;2023-05-10T06:02:32;1.67;;;1.40;;
42260;SDS011;27926;48.062;7.474;2023-05-10T06:04:56;2.90;;;1.75;;
42260;SDS011;27926;48.062;7.474;2023-05-10T06:07:21;5.28;;;1.42;;
42260;SDS011;27926;48.062;7.474;2023-05-10T06:09:46;12.55;;;1.40;;
42260;SDS011;27926;48.062;7.474;2023-05-10T06:12:10;2.60;;;1.77;;
42260;SDS011;27926;48.062;7.474;2023-05-10T06:14:35;5.93;;;1.60;;
42260;SDS011;27926;48.062;7.474;2023-05-10T06:17:00;8.27;;;1.38;;
42260;SDS011;27926;48.062;7.474;2023-05-10T06:19:24;6.68;;;1.13;;
42260;SDS011;27926;48.062;7.474;2023-05-10T06:21:50;8.77;;;1.48;;
42260;SDS011;27926;48.062;7.474;2023-05-10T06:24:14;3.60;;;1.13;;
42260;SDS011;27926;48.062;7.474;2023-05-10T06:26:39;4.13;;;1.05;;
42260;SDS011;27926;48.062;7.474;2023-05-10T06:29:04;1.02;;;0.95;;
42260;SDS011;27926;48.062;7.474;2023-05-10T06:31:28;1.45;;;0.70;;
42260;SDS011;27926;48.062;7.474;2023-05-10T06:33:53;3.25;;;0.77;;
42260;SDS011;27926;48.062;7.474;2023-05-10T06:36:18;0.90;;;0.80;;
42260;SDS011;27926;48.062;7.474;2023-05-10T06:38:42;6.70;;;0.88;;
42260;SDS011;27926;48.062;7.474;2023-05-10T06:41:07;3.25;;;0.82;;
42260;SDS011;27926;48.062;7.474;2023-05-10T06:43:32;7.43;;;0.85;;
42260;SDS011;27926;48.062;7.474;2023-05-10T06:45:56;5.28;;;1.00;;
42260;SDS011;27926;48.062;7.474;2023-05-10T06:48:21;0.80;;;0.63;;
42260;SDS011;27926;48.062;7.474;2023-05-10T06:50:46;2.55;;;2.35;;
42260;SDS011;27926;48.062;7.474;2023-05-10T06:53:10;9.98;;;0.75;;
42260;SDS011;27926;48.062;7.474;2023-05-10T06:55:36;1.30;;;0.75;;
42260;SDS011;27926;48.062;7.474;2023-05-10T06:58:00;6.30;;;0.70;;
42260;SDS011;27926;48.062;7.474;2023-05-10T07:00:26;3.33;;;0.60;;
42260;SDS011;27926;48.062;7.474;2023-05-10T07:02:51;0.90;;;0.63;;
42260;SDS011;27926;48.062;7.474;2023-05-10T07:05:15;0.63;;;0.60;;
42260;SDS011;27926;48.062;7.474;2023-05-10T07:07:41;1.63;;;0.90;;
42260;SDS011;27926;48.062;7.474;2023-05-10T07:10:06;1.23;;;0.80;;
42260;SDS011;27926;48.062;7.474;2023-05-10T07:12:31;4.50;;;0.65;;
42260;SDS011;27926;48.062;7.474;2023-05-10T07:14:56;4.10;;;0.53;;
42260;SDS011;27926;48.062;7.474;2023-05-10T07:17:21;8.88;;;1.10;;
42260;SDS011;27926;48.062;7.474;2023-05-10T07:19:45;1.87;;;0.60;;
42260;SDS011;27926;48.062;7.474;2023-05-10T07:22:10;1.08;;;0.52;;
42260;SDS011;27926;48.062;7.474;2023-05-10T07:24:35;2.67;;;0.47;;
42260;SDS011;27926;48.062;7.474;2023-05-10T07:27:00;2.23;;;0.37;;
42260;SDS011;27926;48.062;7.474;2023-05-10T07:29:24;5.85;;;0.40;;
42260;SDS011;27926;48.062;7.474;2023-05-10T07:31:49;1.35;;;0.30;;
42260;SDS011;27926;48.062;7.474;2023-05-10T07:34:14;0.73;;;0.50;;
42260;SDS011;27926;48.062;7.474;2023-05-10T07:36:38;4.20;;;0.60;;
42260;SDS011;27926;48.062;7.474;2023-05-10T07:39:03;2.78;;;0.43;;
42260;SDS011;27926;48.062;7.474;2023-05-10T07:41:28;1.40;;;0.65;;
42260;SDS011;27926;48.062;7.474;2023-05-10T07:43:52;0.37;;;0.30;;
42260;SDS011;27926;48.062;7.474;2023-05-10T07:46:17;0.40;;;0.40;;
42260;SDS011;27926;48.062;7.474;2023-05-10T07:48:43;3.17;;;0.43;;
42260;SDS011;27926;48.062;7.474;2023-05-10T07:51:07;2.33;;;0.60;;
42260;SDS011;27926;48.062;7.474;2023-05-10T07:53:33;2.97;;;0.50;;
42260;SDS011;27926;48.062;7.474;2023-05-10T07:55:58;1.43;;;0.40;;
42260;SDS011;27926;48.062;7.474;2023-05-10T07:58:22;1.57;;;0.50;;
42260;SDS011;27926;48.062;7.474;2023-05-10T08:00:47;4.13;;;0.67;;
42260;SDS011;27926;48.062;7.474;2023-05-10T08:03:13;2.60;;;0.50;;
42260;SDS011;27926;48.062;7.474;2023-05-10T08:05:37;2.17;;;0.50;;
42260;SDS011;27926;48.062;7.474;2023-05-10T08:08:02;0.82;;;0.40;;
42260;SDS011;27926;48.062;7.474;2023-05-10T08:10:29;5.43;;;0.50;;
42260;SDS011;27926;48.062;7.474;2023-05-10T08:12:54;1.67;;;0.68;;
42260;SDS011;27926;48.062;7.474;2023-05-10T08:15:18;7.17;;;1.20;;
42260;SDS011;27926;48.062;7.474;2023-05-10T08:17:43;2.28;;;0.43;;
42260;SDS011;27926;48.062;7.474;2023-05-10T08:20:08;1.45;;;1.00;;
42260;SDS011;27926;48.062;7.474;2023-05-10T08:22:33;4.37;;;0.90;;
42260;SDS011;27926;48.062;7.474;2023-05-10T08:24:57;6.93;;;1.27;;
42260;SDS011;27926;48.062;7.474;2023-05-10T08:27:22;5.83;;;1.43;;
42260;SDS011;27926;48.062;7.474;2023-05-10T08:29:46;1.55;;;0.73;;
42260;SDS011;27926;48.062;7.474;2023-05-10T08:32:11;6.05;;;1.05;;
42260;SDS011;27926;48.062;7.474;2023-05-10T08:34:36;1.92;;;0.85;;
42260;SDS011;27926;48.062;7.474;2023-05-10T08:37:00;1.42;;;0.70;;
42260;SDS011;27926;48.062;7.474;2023-05-10T08:39:25;5.28;;;0.75;;
42260;SDS011;27926;48.062;7.474;2023-05-10T08:41:51;1.98;;;0.55;;
42260;SDS011;27926;48.062;7.474;2023-05-10T08:44:17;2.65;;;0.43;;
42260;SDS011;27926;48.062;7.474;2023-05-10T08:46:43;1.63;;;0.50;;
42260;SDS011;27926;48.062;7.474;2023-05-10T08:49:10;5.32;;;0.70;;
42260;SDS011;27926;48.062;7.474;2023-05-10T08:51:41;3.83;;;0.73;;
42260;SDS011;27926;48.062;7.474;2023-05-10T08:54:11;3.58;;;0.40;;
42260;SDS011;27926;48.062;7.474;2023-05-10T08:56:36;2.65;;;0.80;;
42260;SDS011;27926;48.062;7.474;2023-05-10T08:59:01;2.57;;;0.60;;
42260;SDS011;27926;48.062;7.474;2023-05-10T09:01:25;3.60;;;0.70;;
42260;SDS011;27926;48.062;7.474;2023-05-10T09:03:51;5.85;;;0.65;;
42260;SDS011;27926;48.062;7.474;2023-05-10T09:06:16;2.83;;;0.35;;
42260;SDS011;27926;48.062;7.474;2023-05-10T09:08:42;0.20;;;0.15;;
42260;SDS011;27926;48.062;7.474;2023-05-10T09:11:07;2.05;;;0.32;;
42260;SDS011;27926;48.062;7.474;2023-05-10T09:15:58;3.35;;;0.43;;
42260;SDS011;27926;48.062;7.474;2023-05-10T09:18:23;2.70;;;0.32;;
42260;SDS011;27926;48.062;7.474;2023-05-10T09:20:48;1.73;;;0.50;;
42260;SDS011;27926;48.062;7.474;2023-05-10T09:23:13;5.83;;;0.40;;
42260;SDS011;27926;48.062;7.474;2023-05-10T09:25:38;2.08;;;0.60;;
42260;SDS011;27926;48.062;7.474;2023-05-10T09:28:02;9.25;;;0.50;;
42260;SDS011;27926;48.062;7.474;2023-05-10T09:30:32;2.35;;;0.50;;
42260;SDS011;27926;48.062;7.474;2023-05-10T09:32:58;3.42;;;0.50;;
42260;SDS011;27926;48.062;7.474;2023-05-10T09:35:23;1.42;;;0.60;;
42260;SDS011;27926;48.062;7.474;2023-05-10T09:37:53;3.08;;;0.88;;
42260;SDS011;27926;48.062;7.474;2023-05-10T09:40:20;6.05;;;1.40;;
42260;SDS011;27926;48.062;7.474;2023-05-10T09:42:53;1.30;;;0.43;;
42260;SDS011;27926;48.062;7.474;2023-05-10T09:45:29;3.25;;;1.05;;
42260;SDS011;27926;48.062;7.474;2023-05-10T09:47:55;1.10;;;0.30;;
42260;SDS011;27926;48.062;7.474;2023-05-10T09:50:20;3.38;;;0.70;;
42260;SDS011;27926;48.062;7.474;2023-05-10T09:52:47;3.63;;;1.20;;
42260;SDS011;27926;48.062;7.474;2023-05-10T09:57:48;2.88;;;0.57;;
42260;SDS011;27926;48.062;7.474;2023-05-10T10:00:17;1.38;;;0.40;;
42260;SDS011;27926;48.062;7.474;2023-05-10T10:02:45;1.23;;;0.32;;
42260;SDS011;27926;48.062;7.474;2023-05-10T10:05:11;3.20;;;0.60;;
42260;SDS011;27926;48.062;7.474;2023-05-10T10:07:36;10.07;;;1.02;;
42260;SDS011;27926;48.062;7.474;2023-05-10T10:10:00;4.13;;;0.50;;
42260;SDS011;27926;48.062;7.474;2023-05-10T10:12:25;2.43;;;0.80;;
42260;SDS011;27926;48.062;7.474;2023-05-10T10:14:50;1.73;;;0.50;;
42260;SDS011;27926;48.062;7.474;2023-05-10T10:17:15;1.97;;;0.20;;
42260;SDS011;27926;48.062;7.474;2023-05-10T10:19:41;0.88;;;0.30;;
42260;SDS011;27926;48.062;7.474;2023-05-10T10:22:05;3.15;;;0.40;;
42260;SDS011;27926;48.062;7.474;2023-05-10T10:24:30;1.00;;;0.40;;
42260;SDS011;27926;48.062;7.474;2023-05-10T10:26:55;0.43;;;0.10;;
42260;SDS011;27926;48.062;7.474;2023-05-10T10:32:09;1.42;;;0.35;;
42260;SDS011;27926;48.062;7.474;2023-05-10T10:34:47;0.65;;;0.43;;
42260;SDS011;27926;48.062;7.474;2023-05-10T10:37:12;4.53;;;0.40;;
42260;SDS011;27926;48.062;7.474;2023-05-10T10:39:37;1.17;;;0.40;;
42260;SDS011;27926;48.062;7.474;2023-05-10T10:42:01;1.57;;;0.50;;
42260;SDS011;27926;48.062;7.474;2023-05-10T10:47:02;1.02;;;0.40;;
42260;SDS011;27926;48.062;7.474;2023-05-10T10:49:33;7.50;;;0.80;;
42260;SDS011;27926;48.062;7.474;2023-05-10T10:54:53;3.50;;;0.60;;
42260;SDS011;27926;48.062;7.474;2023-05-10T10:57:20;2.53;;;0.52;;
42260;SDS011;27926;48.062;7.474;2023-05-10T10:59:50;1.40;;;0.60;;
42260;SDS011;27926;48.062;7.474;2023-05-10T11:02:33;6.70;;;0.63;;
42260;SDS011;27926;48.062;7.474;2023-05-10T11:07:57;2.65;;;0.60;;
42260;SDS011;27926;48.062;7.474;2023-05-10T11:10:24;1.98;;;0.60;;
42260;SDS011;27926;48.062;7.474;2023-05-10T11:13:02;2.88;;;0.65;;
42260;SDS011;27926;48.062;7.474;2023-05-10T11:17:57;2.35;;;0.60;;
42260;SDS011;27926;48.062;7.474;2023-05-10T11:20:21;2.60;;;0.70;;
42260;SDS011;27926;48.062;7.474;2023-05-10T11:22:52;4.03;;;0.85;;
42260;SDS011;27926;48.062;7.474;2023-05-10T11:25:17;3.40;;;0.68;;
42260;SDS011;27926;48.062;7.474;2023-05-10T11:27:42;1.10;;;0.30;;
42260;SDS011;27926;48.062;7.474;2023-05-10T11:30:07;1.27;;;0.30;;
42260;SDS011;27926;48.062;7.474;2023-05-10T11:32:35;1.80;;;0.50;;
42260;SDS011;27926;48.062;7.474;2023-05-10T11:35:10;2.70;;;0.60;;
42260;SDS011;27926;48.062;7.474;2023-05-10T11:37:35;4.13;;;0.40;;
42260;SDS011;27926;48.062;7.474;2023-05-10T11:40:00;2.37;;;0.43;;
42260;SDS011;27926;48.062;7.474;2023-05-10T11:42:27;4.53;;;0.40;;
42260;SDS011;27926;48.062;7.474;2023-05-10T11:44:52;1.85;;;0.47;;
42260;SDS011;27926;48.062;7.474;2023-05-10T11:47:16;2.40;;;0.53;;
42260;SDS011;27926;48.062;7.474;2023-05-10T11:49:44;7.90;;;0.67;;
42260;SDS011;27926;48.062;7.474;2023-05-10T11:52:10;3.25;;;0.35;;
42260;SDS011;27926;48.062;7.474;2023-05-10T11:54:37;3.65;;;0.55;;
42260;SDS011;27926;48.062;7.474;2023-05-10T11:57:18;1.17;;;0.50;;
42260;SDS011;27926;48.062;7.474;2023-05-10T11:59:44;1.27;;;0.63;;
42260;SDS011;27926;48.062;7.474;2023-05-10T12:02:09;1.48;;;0.30;;
42260;SDS011;27926;48.062;7.474;2023-05-10T12:04:34;2.15;;;0.40;;
42260;SDS011;27926;48.062;7.474;2023-05-10T12:06:59;0.57;;;0.33;;
42260;SDS011;27926;48.062;7.474;2023-05-10T12:09:23;3.30;;;0.40;;
42260;SDS011;27926;48.062;7.474;2023-05-10T12:11:48;0.23;;;0.23;;
42260;SDS011;27926;48.062;7.474;2023-05-10T12:14:13;0.97;;;0.40;;
42260;SDS011;27926;48.062;7.474;2023-05-10T12:16:39;0.30;;;0.30;;
42260;SDS011;27926;48.062;7.474;2023-05-10T12:19:04;1.10;;;0.30;;
42260;SDS011;27926;48.062;7.474;2023-05-10T12:21:29;0.82;;;0.20;;
42260;SDS011;27926;48.062;7.474;2023-05-10T12:24:01;2.20;;;0.22;;
42260;SDS011;27926;48.062;7.474;2023-05-10T12:26:27;1.77;;;0.25;;
42260;SDS011;27926;48.062;7.474;2023-05-10T12:28:53;0.22;;;0.22;;
42260;SDS011;27926;48.062;7.474;2023-05-10T12:31:18;1.02;;;0.43;;
42260;SDS011;27926;48.062;7.474;2023-05-10T12:33:43;3.13;;;0.20;;
42260;SDS011;27926;48.062;7.474;2023-05-10T12:36:09;5.43;;;0.40;;
42260;SDS011;27926;48.062;7.474;2023-05-10T12:38:36;1.40;;;0.35;;
42260;SDS011;27926;48.062;7.474;2023-05-10T12:41:02;0.43;;;0.20;;
42260;SDS011;27926;48.062;7.474;2023-05-10T12:43:31;0.40;;;0.20;;
42260;SDS011;27926;48.062;7.474;2023-05-10T12:45:57;0.40;;;0.10;;
42260;SDS011;27926;48.062;7.474;2023-05-10T12:48:22;0.20;;;0.20;;
42260;SDS011;27926;48.062;7.474;2023-05-10T12:50:47;0.13;;;0.13;;
42260;SDS011;27926;48.062;7.474;2023-05-10T12:53:14;3.17;;;0.10;;
42260;SDS011;27926;48.062;7.474;2023-05-10T12:55:39;0.47;;;0.35;;
42260;SDS011;27926;48.062;7.474;2023-05-10T12:58:04;0.75;;;0.20;;
42260;SDS011;27926;48.062;7.474;2023-05-10T13:00:28;2.25;;;0.20;;
42260;SDS011;27926;48.062;7.474;2023-05-10T13:02:53;1.15;;;0.20;;
42260;SDS011;27926;48.062;7.474;2023-05-10T13:05:18;3.33;;;0.43;;
42260;SDS011;27926;48.062;7.474;2023-05-10T13:07:42;0.70;;;0.25;;
42260;SDS011;27926;48.062;7.474;2023-05-10T13:10:07;0.40;;;0.20;;
42260;SDS011;27926;48.062;7.474;2023-05-10T13:12:32;0.10;;;0.10;;
42260;SDS011;27926;48.062;7.474;2023-05-10T13:14:57;0.27;;;0.20;;
42260;SDS011;27926;48.062;7.474;2023-05-10T13:17:21;1.20;;;0.30;;
42260;SDS011;27926;48.062;7.474;2023-05-10T13:19:46;3.80;;;0.35;;
42260;SDS011;27926;48.062;7.474;2023-05-10T13:22:11;1.67;;;0.20;;
42260;SDS011;27926;48.062;7.474;2023-05-10T13:24:35;0.17;;;0.17;;
42260;SDS011;27926;48.062;7.474;2023-05-10T13:27:00;0.40;;;0.20;;
42260;SDS011;27926;48.062;7.474;2023-05-10T13:29:25;1.97;;;0.27;;
42260;SDS011;27926;48.062;7.474;2023-05-10T13:31:49;1.60;;;0.30;;
42260;SDS011;27926;48.062;7.474;2023-05-10T13:34:14;0.10;;;0.10;;
42260;SDS011;27926;48.062;7.474;2023-05-10T13:36:38;1.47;;;0.17;;
42260;SDS011;27926;48.062;7.474;2023-05-10T13:39:03;4.43;;;0.37;;
42260;SDS011;27926;48.062;7.474;2023-05-10T13:41:29;0.30;;;0.28;;
42260;SDS011;27926;48.062;7.474;2023-05-10T13:43:53;0.30;;;0.20;;
42260;SDS011;27926;48.062;7.474;2023-05-10T13:46:18;0.23;;;0.17;;
42260;SDS011;27926;48.062;7.474;2023-05-10T13:48:43;0.10;;;0.10;;
42260;SDS011;27926;48.062;7.474;2023-05-10T13:51:07;1.77;;;0.27;;
42260;SDS011;27926;48.062;7.474;2023-05-10T13:53:32;0.53;;;0.20;;
42260;SDS011;27926;48.062;7.474;2023-05-10T13:55:57;5.33;;;0.23;;
42260;SDS011;27926;48.062;7.474;2023-05-10T13:58:22;0.37;;;0.20;;
42260;SDS011;27926;48.062;7.474;2023-05-10T14:00:47;0.70;;;0.10;;
42260;SDS011;27926;48.062;7.474;2023-05-10T14:03:12;3.73;;;0.30;;
42260;SDS011;27926;48.062;7.474;2023-05-10T14:05:36;1.63;;;0.50;;
42260;SDS011;27926;48.062;7.474;2023-05-10T14:08:01;1.70;;;0.30;;
42260;SDS011;27926;48.062;7.474;2023-05-10T14:10:25;1.50;;;0.27;;
42260;SDS011;27926;48.062;7.474;2023-05-10T14:12:50;2.07;;;0.40;;
42260;SDS011;27926;48.062;7.474;2023-05-10T14:15:15;1.87;;;0.30;;
42260;SDS011;27926;48.062;7.474;2023-05-10T14:17:39;0.10;;;0.10;;
42260;SDS011;27926;48.062;7.474;2023-05-10T14:20:04;1.87;;;0.40;;
42260;SDS011;27926;48.062;7.474;2023-05-10T14:22:29;1.65;;;0.30;;
42260;SDS011;27926;48.062;7.474;2023-05-10T14:24:54;5.33;;;0.53;;
42260;SDS011;27926;48.062;7.474;2023-05-10T14:27:19;0.65;;;0.20;;
42260;SDS011;27926;48.062;7.474;2023-05-10T14:29:43;1.30;;;0.63;;
42260;SDS011;27926;48.062;7.474;2023-05-10T14:32:08;0.55;;;0.47;;
42260;SDS011;27926;48.062;7.474;2023-05-10T14:34:33;2.35;;;0.82;;
42260;SDS011;27926;48.062;7.474;2023-05-10T14:36:57;2.07;;;0.73;;
42260;SDS011;27926;48.062;7.474;2023-05-10T14:39:22;0.22;;;0.20;;
42260;SDS011;27926;48.062;7.474;2023-05-10T14:41:47;1.30;;;0.57;;
42260;SDS011;27926;48.062;7.474;2023-05-10T14:44:11;2.85;;;0.93;;
42260;SDS011;27926;48.062;7.474;2023-05-10T14:46:36;0.50;;;0.33;;
42260;SDS011;27926;48.062;7.474;2023-05-10T14:49:01;1.15;;;0.60;;
42260;SDS011;27926;48.062;7.474;2023-05-10T14:51:25;4.43;;;1.60;;
42260;SDS011;27926;48.062;7.474;2023-05-10T14:53:50;0.88;;;0.28;;
42260;SDS011;27926;48.062;7.474;2023-05-10T14:56:15;2.33;;;0.80;;
42260;SDS011;27926;48.062;7.474;2023-05-10T14:58:39;1.67;;;0.73;;
42260;SDS011;27926;48.062;7.474;2023-05-10T15:01:04;2.57;;;1.13;;
42260;SDS011;27926;48.062;7.474;2023-05-10T15:03:29;3.22;;;1.40;;
42260;SDS011;27926;48.062;7.474;2023-05-10T15:05:53;1.40;;;0.70;;
42260;SDS011;27926;48.062;7.474;2023-05-10T15:08:19;1.13;;;0.40;;
42260;SDS011;27926;48.062;7.474;2023-05-10T15:10:44;1.15;;;0.30;;
42260;SDS011;27926;48.062;7.474;2023-05-10T15:13:09;0.38;;;0.35;;
42260;SDS011;27926;48.062;7.474;2023-05-10T15:15:33;0.67;;;0.43;;
42260;SDS011;27926;48.062;7.474;2023-05-10T15:17:58;2.00;;;0.40;;
42260;SDS011;27926;48.062;7.474;2023-05-10T15:20:23;0.47;;;0.17;;